KDGW/DGW METAR and TAF weather

Enter ICAO airport designator
Station Type Date Time Source
KDGW METAR 2022/10/01 09:05 UTC NOAA

KDGW 010905Z AUTO 34005KT 10SM SCT009 BKN015 BKN021 11/10 A3008 RMK AO2 T01060100


Station Type Date Time Source
KDGW Decoded METAR 2022/10/01 09:05 UTC NOAA

DOUGLAS CONVERSE COUNTY, WY, United States (KDGW) 42-48N 105-23W 1499M
Oct 01, 2022 - 05:05 AM EDT / 2022.10.01 0905 UTC
Wind: from the NNW (340 degrees) at 6 MPH (5 KT):0
Visibility: 10 mile(s):0
Sky conditions: mostly cloudy
Temperature: 51.1 F (10.6 C)
Dew Point: 50.0 F (10.0 C)
Relative Humidity: 96%
Pressure (altimeter): 30.08 in. Hg (1018 hPa)
ob: KDGW 010905Z AUTO 34005KT 10SM SCT009 BKN015 BKN021 11/10 A3008 RMK AO2 T01060100
cycle: 9

Station Type Date Time Source
KDGW TAF UTC NOAA

Error!

Example: see airport list